sensor_id;sensor_type;location;lat;lon;timestamp;P1;durP1;ratioP1;P2;durP2;ratioP2
5937;SDS011;2994;51.220;4.412;2023-04-24T00:01:13;17.63;;;12.87;;
5937;SDS011;2994;51.220;4.412;2023-04-24T00:03:38;17.50;;;15.07;;
5937;SDS011;2994;51.220;4.412;2023-04-24T00:06:04;20.40;;;14.17;;
5937;SDS011;2994;51.220;4.412;2023-04-24T00:08:33;22.70;;;16.43;;
5937;SDS011;2994;51.220;4.412;2023-04-24T00:10:59;21.27;;;16.17;;
5937;SDS011;2994;51.220;4.412;2023-04-24T00:13:24;19.97;;;15.97;;
5937;SDS011;2994;51.220;4.412;2023-04-24T00:15:50;22.83;;;17.17;;
5937;SDS011;2994;51.220;4.412;2023-04-24T00:18:16;22.20;;;17.20;;
5937;SDS011;2994;51.220;4.412;2023-04-24T00:20:42;22.37;;;15.97;;
5937;SDS011;2994;51.220;4.412;2023-04-24T00:23:08;19.20;;;15.63;;
5937;SDS011;2994;51.220;4.412;2023-04-24T00:25:34;19.33;;;15.60;;
5937;SDS011;2994;51.220;4.412;2023-04-24T00:28:00;20.70;;;14.17;;
5937;SDS011;2994;51.220;4.412;2023-04-24T00:30:25;20.30;;;15.60;;
5937;SDS011;2994;51.220;4.412;2023-04-24T00:32:51;16.23;;;13.90;;
5937;SDS011;2994;51.220;4.412;2023-04-24T00:35:16;21.30;;;14.83;;
5937;SDS011;2994;51.220;4.412;2023-04-24T00:37:42;14.40;;;12.90;;
5937;SDS011;2994;51.220;4.412;2023-04-24T00:40:07;17.17;;;14.13;;
5937;SDS011;2994;51.220;4.412;2023-04-24T00:42:33;17.80;;;14.60;;
5937;SDS011;2994;51.220;4.412;2023-04-24T00:45:02;17.67;;;14.53;;
5937;SDS011;2994;51.220;4.412;2023-04-24T00:47:28;15.97;;;13.07;;
5937;SDS011;2994;51.220;4.412;2023-04-24T00:49:54;16.07;;;13.60;;
5937;SDS011;2994;51.220;4.412;2023-04-24T00:52:22;17.97;;;12.97;;
5937;SDS011;2994;51.220;4.412;2023-04-24T00:54:49;16.77;;;14.97;;
5937;SDS011;2994;51.220;4.412;2023-04-24T00:57:15;20.03;;;15.20;;
5937;SDS011;2994;51.220;4.412;2023-04-24T00:59:41;22.30;;;17.90;;
5937;SDS011;2994;51.220;4.412;2023-04-24T01:02:07;23.50;;;17.93;;
5937;SDS011;2994;51.220;4.412;2023-04-24T01:04:34;21.73;;;17.10;;
5937;SDS011;2994;51.220;4.412;2023-04-24T01:07:00;19.90;;;14.80;;
5937;SDS011;2994;51.220;4.412;2023-04-24T01:09:26;22.43;;;15.40;;
5937;SDS011;2994;51.220;4.412;2023-04-24T01:11:51;23.17;;;15.60;;
5937;SDS011;2994;51.220;4.412;2023-04-24T01:14:17;21.73;;;16.80;;
5937;SDS011;2994;51.220;4.412;2023-04-24T01:16:43;22.63;;;16.60;;
5937;SDS011;2994;51.220;4.412;2023-04-24T01:19:08;21.83;;;17.67;;
5937;SDS011;2994;51.220;4.412;2023-04-24T01:21:38;19.60;;;15.20;;
5937;SDS011;2994;51.220;4.412;2023-04-24T01:24:05;17.27;;;13.80;;
5937;SDS011;2994;51.220;4.412;2023-04-24T01:26:36;16.33;;;12.67;;
5937;SDS011;2994;51.220;4.412;2023-04-24T01:29:02;15.50;;;13.10;;
5937;SDS011;2994;51.220;4.412;2023-04-24T01:31:28;16.40;;;13.53;;
5937;SDS011;2994;51.220;4.412;2023-04-24T01:33:54;15.53;;;13.63;;
5937;SDS011;2994;51.220;4.412;2023-04-24T01:36:21;14.50;;;12.80;;
5937;SDS011;2994;51.220;4.412;2023-04-24T01:38:47;13.50;;;12.03;;
5937;SDS011;2994;51.220;4.412;2023-04-24T01:41:12;13.73;;;11.63;;
5937;SDS011;2994;51.220;4.412;2023-04-24T01:43:38;13.33;;;11.60;;
5937;SDS011;2994;51.220;4.412;2023-04-24T01:46:03;13.63;;;12.23;;
5937;SDS011;2994;51.220;4.412;2023-04-24T01:48:29;14.83;;;11.20;;
5937;SDS011;2994;51.220;4.412;2023-04-24T01:50:56;15.67;;;11.70;;
5937;SDS011;2994;51.220;4.412;2023-04-24T01:53:21;13.20;;;10.40;;
5937;SDS011;2994;51.220;4.412;2023-04-24T01:55:47;10.83;;;9.73;;
5937;SDS011;2994;51.220;4.412;2023-04-24T01:58:15;11.03;;;9.50;;
5937;SDS011;2994;51.220;4.412;2023-04-24T02:00:41;11.77;;;9.13;;
5937;SDS011;2994;51.220;4.412;2023-04-24T02:03:06;11.33;;;9.27;;
5937;SDS011;2994;51.220;4.412;2023-04-24T02:05:32;9.40;;;8.50;;
5937;SDS011;2994;51.220;4.412;2023-04-24T02:07:57;10.67;;;9.40;;
5937;SDS011;2994;51.220;4.412;2023-04-24T02:10:26;11.40;;;8.70;;
5937;SDS011;2994;51.220;4.412;2023-04-24T02:12:51;11.20;;;10.03;;
5937;SDS011;2994;51.220;4.412;2023-04-24T02:15:17;10.20;;;9.10;;
5937;SDS011;2994;51.220;4.412;2023-04-24T02:17:43;12.40;;;10.37;;
5937;SDS011;2994;51.220;4.412;2023-04-24T02:20:08;11.10;;;9.90;;
5937;SDS011;2994;51.220;4.412;2023-04-24T02:22:34;13.27;;;10.20;;
5937;SDS011;2994;51.220;4.412;2023-04-24T02:24:59;12.37;;;9.90;;
5937;SDS011;2994;51.220;4.412;2023-04-24T02:27:25;14.77;;;10.03;;
5937;SDS011;2994;51.220;4.412;2023-04-24T02:29:51;10.50;;;9.40;;
5937;SDS011;2994;51.220;4.412;2023-04-24T02:32:16;12.63;;;10.27;;
5937;SDS011;2994;51.220;4.412;2023-04-24T02:34:42;14.53;;;11.33;;
5937;SDS011;2994;51.220;4.412;2023-04-24T02:37:07;11.53;;;10.33;;
5937;SDS011;2994;51.220;4.412;2023-04-24T02:39:33;11.83;;;10.13;;
5937;SDS011;2994;51.220;4.412;2023-04-24T02:41:58;13.73;;;9.67;;
5937;SDS011;2994;51.220;4.412;2023-04-24T02:44:23;12.97;;;10.97;;
5937;SDS011;2994;51.220;4.412;2023-04-24T02:46:49;13.20;;;10.87;;
5937;SDS011;2994;51.220;4.412;2023-04-24T02:49:15;19.20;;;14.00;;
5937;SDS011;2994;51.220;4.412;2023-04-24T02:51:41;18.17;;;14.73;;
5937;SDS011;2994;51.220;4.412;2023-04-24T02:54:07;19.00;;;14.93;;
5937;SDS011;2994;51.220;4.412;2023-04-24T02:56:34;16.60;;;14.77;;
5937;SDS011;2994;51.220;4.412;2023-04-24T02:59:00;18.20;;;14.80;;
5937;SDS011;2994;51.220;4.412;2023-04-24T03:01:25;17.20;;;15.10;;
5937;SDS011;2994;51.220;4.412;2023-04-24T03:03:50;17.10;;;15.03;;
5937;SDS011;2994;51.220;4.412;2023-04-24T03:06:16;18.33;;;15.73;;
5937;SDS011;2994;51.220;4.412;2023-04-24T03:08:41;20.47;;;15.57;;
5937;SDS011;2994;51.220;4.412;2023-04-24T03:11:07;16.20;;;12.37;;
5937;SDS011;2994;51.220;4.412;2023-04-24T03:13:34;16.03;;;13.20;;
5937;SDS011;2994;51.220;4.412;2023-04-24T03:16:00;15.53;;;13.10;;
5937;SDS011;2994;51.220;4.412;2023-04-24T03:18:25;15.73;;;12.93;;
5937;SDS011;2994;51.220;4.412;2023-04-24T03:20:51;16.30;;;13.73;;
5937;SDS011;2994;51.220;4.412;2023-04-24T03:23:16;18.80;;;15.33;;
5937;SDS011;2994;51.220;4.412;2023-04-24T03:25:42;22.87;;;15.23;;
5937;SDS011;2994;51.220;4.412;2023-04-24T03:28:07;13.20;;;11.67;;
5937;SDS011;2994;51.220;4.412;2023-04-24T03:30:33;11.70;;;10.50;;
5937;SDS011;2994;51.220;4.412;2023-04-24T03:32:59;13.03;;;10.53;;
5937;SDS011;2994;51.220;4.412;2023-04-24T03:35:25;13.73;;;10.53;;
5937;SDS011;2994;51.220;4.412;2023-04-24T03:37:53;10.73;;;8.23;;
5937;SDS011;2994;51.220;4.412;2023-04-24T03:40:19;8.30;;;7.40;;
5937;SDS011;2994;51.220;4.412;2023-04-24T03:42:44;8.87;;;6.97;;
5937;SDS011;2994;51.220;4.412;2023-04-24T03:45:10;6.63;;;5.47;;
5937;SDS011;2994;51.220;4.412;2023-04-24T03:47:35;6.33;;;5.20;;
5937;SDS011;2994;51.220;4.412;2023-04-24T03:50:00;7.90;;;5.97;;
5937;SDS011;2994;51.220;4.412;2023-04-24T03:52:26;5.40;;;4.90;;
5937;SDS011;2994;51.220;4.412;2023-04-24T03:54:52;9.00;;;4.93;;
5937;SDS011;2994;51.220;4.412;2023-04-24T03:57:17;6.03;;;4.47;;
5937;SDS011;2994;51.220;4.412;2023-04-24T03:59:42;5.70;;;4.10;;
5937;SDS011;2994;51.220;4.412;2023-04-24T04:02:08;6.60;;;3.70;;
5937;SDS011;2994;51.220;4.412;2023-04-24T04:04:33;6.57;;;4.03;;
5937;SDS011;2994;51.220;4.412;2023-04-24T04:06:59;6.50;;;4.60;;
5937;SDS011;2994;51.220;4.412;2023-04-24T04:09:28;6.20;;;4.60;;
5937;SDS011;2994;51.220;4.412;2023-04-24T04:11:53;6.53;;;4.60;;
5937;SDS011;2994;51.220;4.412;2023-04-24T04:14:22;7.60;;;5.67;;
5937;SDS011;2994;51.220;4.412;2023-04-24T04:16:51;6.07;;;4.73;;
5937;SDS011;2994;51.220;4.412;2023-04-24T04:19:16;6.00;;;5.10;;
5937;SDS011;2994;51.220;4.412;2023-04-24T04:21:42;8.20;;;5.43;;
5937;SDS011;2994;51.220;4.412;2023-04-24T04:24:07;9.93;;;5.57;;
5937;SDS011;2994;51.220;4.412;2023-04-24T04:26:34;7.70;;;5.67;;
5937;SDS011;2994;51.220;4.412;2023-04-24T04:29:03;7.13;;;5.77;;
5937;SDS011;2994;51.220;4.412;2023-04-24T04:31:29;10.33;;;5.93;;
5937;SDS011;2994;51.220;4.412;2023-04-24T04:33:55;6.97;;;6.30;;
5937;SDS011;2994;51.220;4.412;2023-04-24T04:36:23;9.97;;;7.73;;
5937;SDS011;2994;51.220;4.412;2023-04-24T04:38:49;8.93;;;6.10;;
5937;SDS011;2994;51.220;4.412;2023-04-24T04:41:14;8.47;;;6.97;;
5937;SDS011;2994;51.220;4.412;2023-04-24T04:43:41;9.00;;;7.27;;
5937;SDS011;2994;51.220;4.412;2023-04-24T04:46:07;11.70;;;7.93;;
5937;SDS011;2994;51.220;4.412;2023-04-24T04:48:36;9.27;;;6.83;;
5937;SDS011;2994;51.220;4.412;2023-04-24T04:51:01;14.60;;;8.90;;
5937;SDS011;2994;51.220;4.412;2023-04-24T04:53:27;10.10;;;8.43;;
5937;SDS011;2994;51.220;4.412;2023-04-24T04:55:52;13.73;;;9.50;;
5937;SDS011;2994;51.220;4.412;2023-04-24T04:58:18;13.70;;;10.73;;
5937;SDS011;2994;51.220;4.412;2023-04-24T05:00:43;12.10;;;9.93;;
5937;SDS011;2994;51.220;4.412;2023-04-24T05:03:09;13.23;;;10.13;;
5937;SDS011;2994;51.220;4.412;2023-04-24T05:05:34;15.50;;;11.53;;
5937;SDS011;2994;51.220;4.412;2023-04-24T05:08:00;19.63;;;11.17;;
5937;SDS011;2994;51.220;4.412;2023-04-24T05:10:25;18.90;;;12.90;;
5937;SDS011;2994;51.220;4.412;2023-04-24T05:12:51;17.57;;;10.00;;
5937;SDS011;2994;51.220;4.412;2023-04-24T05:15:16;15.50;;;10.73;;
5937;SDS011;2994;51.220;4.412;2023-04-24T05:17:41;14.50;;;9.13;;
5937;SDS011;2994;51.220;4.412;2023-04-24T05:20:07;19.70;;;11.13;;
5937;SDS011;2994;51.220;4.412;2023-04-24T05:22:33;18.93;;;10.00;;
5937;SDS011;2994;51.220;4.412;2023-04-24T05:24:58;10.70;;;8.63;;
5937;SDS011;2994;51.220;4.412;2023-04-24T05:27:24;14.37;;;9.47;;
5937;SDS011;2994;51.220;4.412;2023-04-24T05:29:50;13.67;;;8.23;;
5937;SDS011;2994;51.220;4.412;2023-04-24T05:32:16;9.63;;;7.70;;
5937;SDS011;2994;51.220;4.412;2023-04-24T05:34:41;9.10;;;6.63;;
5937;SDS011;2994;51.220;4.412;2023-04-24T05:37:06;13.43;;;7.50;;
5937;SDS011;2994;51.220;4.412;2023-04-24T05:39:34;9.13;;;7.53;;
5937;SDS011;2994;51.220;4.412;2023-04-24T05:42:00;11.73;;;7.90;;
5937;SDS011;2994;51.220;4.412;2023-04-24T05:44:26;8.30;;;7.30;;
5937;SDS011;2994;51.220;4.412;2023-04-24T05:46:52;8.40;;;6.83;;
5937;SDS011;2994;51.220;4.412;2023-04-24T05:49:17;13.10;;;8.27;;
5937;SDS011;2994;51.220;4.412;2023-04-24T05:51:43;8.77;;;7.10;;
5937;SDS011;2994;51.220;4.412;2023-04-24T05:54:08;10.03;;;8.27;;
5937;SDS011;2994;51.220;4.412;2023-04-24T05:56:35;10.93;;;7.53;;
5937;SDS011;2994;51.220;4.412;2023-04-24T05:59:01;11.13;;;8.70;;
5937;SDS011;2994;51.220;4.412;2023-04-24T06:01:26;10.70;;;8.93;;
5937;SDS011;2994;51.220;4.412;2023-04-24T06:03:52;11.63;;;9.50;;
5937;SDS011;2994;51.220;4.412;2023-04-24T06:06:18;12.00;;;9.53;;
5937;SDS011;2994;51.220;4.412;2023-04-24T06:08:44;10.83;;;8.80;;
5937;SDS011;2994;51.220;4.412;2023-04-24T06:11:10;16.40;;;9.10;;
5937;SDS011;2994;51.220;4.412;2023-04-24T06:13:35;14.50;;;8.90;;
5937;SDS011;2994;51.220;4.412;2023-04-24T06:16:01;12.07;;;9.60;;
5937;SDS011;2994;51.220;4.412;2023-04-24T06:18:26;14.83;;;8.87;;
5937;SDS011;2994;51.220;4.412;2023-04-24T06:20:52;16.47;;;10.63;;
5937;SDS011;2994;51.220;4.412;2023-04-24T06:23:18;13.60;;;9.70;;
5937;SDS011;2994;51.220;4.412;2023-04-24T06:25:43;12.00;;;9.33;;
5937;SDS011;2994;51.220;4.412;2023-04-24T06:28:09;12.63;;;9.43;;
5937;SDS011;2994;51.220;4.412;2023-04-24T06:30:34;13.50;;;9.27;;
5937;SDS011;2994;51.220;4.412;2023-04-24T06:33:00;15.93;;;10.90;;
5937;SDS011;2994;51.220;4.412;2023-04-24T06:35:28;20.17;;;10.97;;
5937;SDS011;2994;51.220;4.412;2023-04-24T06:37:54;10.50;;;8.90;;
5937;SDS011;2994;51.220;4.412;2023-04-24T06:40:21;10.57;;;7.43;;
5937;SDS011;2994;51.220;4.412;2023-04-24T06:42:46;17.60;;;10.23;;
5937;SDS011;2994;51.220;4.412;2023-04-24T06:45:15;13.50;;;9.10;;
5937;SDS011;2994;51.220;4.412;2023-04-24T06:47:40;10.33;;;8.93;;
5937;SDS011;2994;51.220;4.412;2023-04-24T06:50:06;11.70;;;9.10;;
5937;SDS011;2994;51.220;4.412;2023-04-24T06:52:32;15.30;;;9.97;;
5937;SDS011;2994;51.220;4.412;2023-04-24T06:55:01;13.60;;;9.20;;
5937;SDS011;2994;51.220;4.412;2023-04-24T06:57:27;10.60;;;8.80;;
5937;SDS011;2994;51.220;4.412;2023-04-24T06:59:53;12.60;;;8.17;;
5937;SDS011;2994;51.220;4.412;2023-04-24T07:02:19;17.90;;;8.00;;
5937;SDS011;2994;51.220;4.412;2023-04-24T07:04:44;12.73;;;7.40;;
5937;SDS011;2994;51.220;4.412;2023-04-24T07:07:12;12.73;;;7.47;;
5937;SDS011;2994;51.220;4.412;2023-04-24T07:09:39;10.20;;;6.83;;
5937;SDS011;2994;51.220;4.412;2023-04-24T07:12:09;14.40;;;7.33;;
5937;SDS011;2994;51.220;4.412;2023-04-24T07:14:38;10.33;;;5.87;;
5937;SDS011;2994;51.220;4.412;2023-04-24T07:17:04;10.03;;;6.00;;
5937;SDS011;2994;51.220;4.412;2023-04-24T07:19:30;10.70;;;5.67;;
5937;SDS011;2994;51.220;4.412;2023-04-24T07:21:56;12.47;;;5.23;;
5937;SDS011;2994;51.220;4.412;2023-04-24T07:24:23;13.57;;;5.27;;
5937;SDS011;2994;51.220;4.412;2023-04-24T07:26:50;8.73;;;5.37;;
5937;SDS011;2994;51.220;4.412;2023-04-24T07:29:19;12.60;;;5.80;;
5937;SDS011;2994;51.220;4.412;2023-04-24T07:31:44;9.37;;;5.90;;
5937;SDS011;2994;51.220;4.412;2023-04-24T07:34:10;9.20;;;5.50;;
5937;SDS011;2994;51.220;4.412;2023-04-24T07:36:36;15.53;;;5.50;;
5937;SDS011;2994;51.220;4.412;2023-04-24T07:39:04;7.67;;;4.90;;
5937;SDS011;2994;51.220;4.412;2023-04-24T07:41:30;5.80;;;4.03;;
5937;SDS011;2994;51.220;4.412;2023-04-24T07:43:56;6.40;;;3.73;;
5937;SDS011;2994;51.220;4.412;2023-04-24T07:46:21;10.00;;;4.47;;
5937;SDS011;2994;51.220;4.412;2023-04-24T07:48:48;6.90;;;4.17;;
5937;SDS011;2994;51.220;4.412;2023-04-24T07:51:14;6.17;;;3.63;;
5937;SDS011;2994;51.220;4.412;2023-04-24T07:53:40;9.73;;;4.17;;
5937;SDS011;2994;51.220;4.412;2023-04-24T07:56:06;7.57;;;5.40;;
5937;SDS011;2994;51.220;4.412;2023-04-24T07:58:31;10.00;;;4.30;;
5937;SDS011;2994;51.220;4.412;2023-04-24T08:00:57;6.27;;;3.80;;
5937;SDS011;2994;51.220;4.412;2023-04-24T08:03:22;12.27;;;4.70;;
5937;SDS011;2994;51.220;4.412;2023-04-24T08:05:48;10.80;;;4.53;;
5937;SDS011;2994;51.220;4.412;2023-04-24T08:08:15;6.73;;;3.53;;
5937;SDS011;2994;51.220;4.412;2023-04-24T08:10:41;7.43;;;4.43;;
5937;SDS011;2994;51.220;4.412;2023-04-24T08:13:06;10.67;;;4.80;;
5937;SDS011;2994;51.220;4.412;2023-04-24T08:15:32;11.07;;;4.23;;
5937;SDS011;2994;51.220;4.412;2023-04-24T08:17:58;7.67;;;4.10;;
5937;SDS011;2994;51.220;4.412;2023-04-24T08:20:23;7.53;;;4.80;;
5937;SDS011;2994;51.220;4.412;2023-04-24T08:22:51;13.40;;;4.70;;
5937;SDS011;2994;51.220;4.412;2023-04-24T08:25:17;8.60;;;4.23;;
5937;SDS011;2994;51.220;4.412;2023-04-24T08:27:44;10.53;;;4.80;;
5937;SDS011;2994;51.220;4.412;2023-04-24T08:30:09;9.33;;;4.27;;
5937;SDS011;2994;51.220;4.412;2023-04-24T08:32:35;12.53;;;5.07;;
5937;SDS011;2994;51.220;4.412;2023-04-24T08:35:01;9.80;;;5.07;;
5937;SDS011;2994;51.220;4.412;2023-04-24T08:37:27;8.53;;;5.23;;
5937;SDS011;2994;51.220;4.412;2023-04-24T08:39:52;6.57;;;3.80;;
5937;SDS011;2994;51.220;4.412;2023-04-24T08:42:18;7.77;;;4.33;;
5937;SDS011;2994;51.220;4.412;2023-04-24T08:44:45;8.73;;;4.40;;
5937;SDS011;2994;51.220;4.412;2023-04-24T08:47:11;7.57;;;3.30;;
5937;SDS011;2994;51.220;4.412;2023-04-24T08:49:37;5.93;;;3.70;;
5937;SDS011;2994;51.220;4.412;2023-04-24T08:52:04;7.40;;;4.17;;
5937;SDS011;2994;51.220;4.412;2023-04-24T08:54:31;4.80;;;3.13;;
5937;SDS011;2994;51.220;4.412;2023-04-24T08:56:59;7.20;;;3.77;;
5937;SDS011;2994;51.220;4.412;2023-04-24T08:59:29;7.47;;;3.93;;
5937;SDS011;2994;51.220;4.412;2023-04-24T09:01:58;7.33;;;3.50;;
5937;SDS011;2994;51.220;4.412;2023-04-24T09:04:25;5.13;;;2.47;;
5937;SDS011;2994;51.220;4.412;2023-04-24T09:06:51;7.50;;;3.70;;
5937;SDS011;2994;51.220;4.412;2023-04-24T09:09:20;8.93;;;3.80;;
5937;SDS011;2994;51.220;4.412;2023-04-24T09:11:48;8.47;;;3.63;;
5937;SDS011;2994;51.220;4.412;2023-04-24T09:14:14;9.87;;;3.50;;
5937;SDS011;2994;51.220;4.412;2023-04-24T09:16:40;5.77;;;3.00;;
5937;SDS011;2994;51.220;4.412;2023-04-24T09:19:06;3.87;;;3.30;;
5937;SDS011;2994;51.220;4.412;2023-04-24T09:21:32;6.70;;;3.90;;
5937;SDS011;2994;51.220;4.412;2023-04-24T09:23:59;6.63;;;4.33;;
5937;SDS011;2994;51.220;4.412;2023-04-24T09:26:28;9.07;;;3.73;;
5937;SDS011;2994;51.220;4.412;2023-04-24T09:28:56;7.40;;;3.20;;
5937;SDS011;2994;51.220;4.412;2023-04-24T09:31:22;7.37;;;3.67;;
5937;SDS011;2994;51.220;4.412;2023-04-24T09:33:54;4.90;;;2.80;;
5937;SDS011;2994;51.220;4.412;2023-04-24T09:36:28;4.27;;;2.97;;
5937;SDS011;2994;51.220;4.412;2023-04-24T09:39:03;5.50;;;2.97;;
5937;SDS011;2994;51.220;4.412;2023-04-24T09:41:31;6.13;;;2.23;;
5937;SDS011;2994;51.220;4.412;2023-04-24T09:43:58;5.60;;;2.57;;
5937;SDS011;2994;51.220;4.412;2023-04-24T09:46:37;11.87;;;3.70;;
5937;SDS011;2994;51.220;4.412;2023-04-24T09:49:09;5.27;;;2.90;;
5937;SDS011;2994;51.220;4.412;2023-04-24T09:51:38;5.30;;;2.90;;
5937;SDS011;2994;51.220;4.412;2023-04-24T09:54:11;14.30;;;3.53;;
5937;SDS011;2994;51.220;4.412;2023-04-24T09:56:44;6.93;;;3.83;;
5937;SDS011;2994;51.220;4.412;2023-04-24T09:59:11;6.13;;;3.43;;
5937;SDS011;2994;51.220;4.412;2023-04-24T10:01:38;9.13;;;3.87;;
5937;SDS011;2994;51.220;4.412;2023-04-24T10:04:06;9.13;;;2.83;;
5937;SDS011;2994;51.220;4.412;2023-04-24T10:06:41;5.47;;;3.47;;
5937;SDS011;2994;51.220;4.412;2023-04-24T10:09:08;7.17;;;2.40;;
5937;SDS011;2994;51.220;4.412;2023-04-24T10:11:35;3.27;;;2.40;;
5937;SDS011;2994;51.220;4.412;2023-04-24T10:14:02;2.53;;;2.13;;
5937;SDS011;2994;51.220;4.412;2023-04-24T10:16:28;3.30;;;2.40;;
5937;SDS011;2994;51.220;4.412;2023-04-24T10:18:56;3.63;;;2.43;;
5937;SDS011;2994;51.220;4.412;2023-04-24T10:21:24;4.70;;;3.20;;
5937;SDS011;2994;51.220;4.412;2023-04-24T10:23:51;3.73;;;2.50;;
5937;SDS011;2994;51.220;4.412;2023-04-24T10:26:18;6.17;;;2.87;;
5937;SDS011;2994;51.220;4.412;2023-04-24T10:28:45;3.23;;;2.43;;
5937;SDS011;2994;51.220;4.412;2023-04-24T10:31:12;9.10;;;3.43;;
5937;SDS011;2994;51.220;4.412;2023-04-24T10:33:40;6.67;;;2.50;;
5937;SDS011;2994;51.220;4.412;2023-04-24T10:36:08;3.87;;;2.17;;
5937;SDS011;2994;51.220;4.412;2023-04-24T10:38:35;7.07;;;2.57;;
5937;SDS011;2994;51.220;4.412;2023-04-24T10:41:09;3.93;;;2.23;;
5937;SDS011;2994;51.220;4.412;2023-04-24T10:43:41;2.40;;;2.20;;
5937;SDS011;2994;51.220;4.412;2023-04-24T10:46:07;4.03;;;2.13;;
5937;SDS011;2994;51.220;4.412;2023-04-24T10:48:44;4.93;;;2.83;;
5937;SDS011;2994;51.220;4.412;2023-04-24T10:51:21;2.93;;;2.30;;
5937;SDS011;2994;51.220;4.412;2023-04-24T10:53:50;7.27;;;2.47;;
5937;SDS011;2994;51.220;4.412;2023-04-24T10:56:16;3.53;;;3.23;;
5937;SDS011;2994;51.220;4.412;2023-04-24T10:58:43;3.00;;;2.30;;
5937;SDS011;2994;51.220;4.412;2023-04-24T11:01:23;3.30;;;2.50;;
5937;SDS011;2994;51.220;4.412;2023-04-24T11:04:22;7.20;;;2.63;;
5937;SDS011;2994;51.220;4.412;2023-04-24T11:06:53;3.57;;;1.70;;
5937;SDS011;2994;51.220;4.412;2023-04-24T11:09:19;2.60;;;1.60;;
5937;SDS011;2994;51.220;4.412;2023-04-24T11:11:46;3.23;;;1.50;;
5937;SDS011;2994;51.220;4.412;2023-04-24T11:14:15;3.50;;;1.50;;
5937;SDS011;2994;51.220;4.412;2023-04-24T11:19:18;4.17;;;1.90;;
5937;SDS011;2994;51.220;4.412;2023-04-24T11:21:47;1.73;;;1.50;;
5937;SDS011;2994;51.220;4.412;2023-04-24T11:29:43;3.87;;;1.63;;
5937;SDS011;2994;51.220;4.412;2023-04-24T11:32:25;3.83;;;2.17;;
5937;SDS011;2994;51.220;4.412;2023-04-24T11:37:35;1.90;;;1.70;;
5937;SDS011;2994;51.220;4.412;2023-04-24T11:40:05;3.77;;;2.00;;
5937;SDS011;2994;51.220;4.412;2023-04-24T11:42:36;6.87;;;1.90;;
5937;SDS011;2994;51.220;4.412;2023-04-24T11:45:12;3.33;;;2.50;;
5937;SDS011;2994;51.220;4.412;2023-04-24T11:47:40;3.83;;;1.70;;
5937;SDS011;2994;51.220;4.412;2023-04-24T11:50:08;3.90;;;1.93;;
5937;SDS011;2994;51.220;4.412;2023-04-24T11:52:39;5.30;;;2.00;;
5937;SDS011;2994;51.220;4.412;2023-04-24T11:57:50;3.10;;;1.80;;
5937;SDS011;2994;51.220;4.412;2023-04-24T12:02:51;3.33;;;2.53;;
5937;SDS011;2994;51.220;4.412;2023-04-24T12:05:43;2.80;;;1.70;;
5937;SDS011;2994;51.220;4.412;2023-04-24T12:08:09;3.97;;;2.13;;
5937;SDS011;2994;51.220;4.412;2023-04-24T12:10:35;2.67;;;1.73;;
5937;SDS011;2994;51.220;4.412;2023-04-24T12:13:03;5.53;;;2.60;;
5937;SDS011;2994;51.220;4.412;2023-04-24T12:15:39;4.27;;;1.97;;
5937;SDS011;2994;51.220;4.412;2023-04-24T12:18:05;3.73;;;2.20;;
5937;SDS011;2994;51.220;4.412;2023-04-24T12:20:31;3.17;;;2.07;;
5937;SDS011;2994;51.220;4.412;2023-04-24T12:22:57;4.20;;;2.57;;
5937;SDS011;2994;51.220;4.412;2023-04-24T12:25:33;2.37;;;1.90;;
5937;SDS011;2994;51.220;4.412;2023-04-24T12:30:44;3.20;;;1.87;;
5937;SDS011;2994;51.220;4.412;2023-04-24T12:33:17;3.13;;;1.50;;
5937;SDS011;2994;51.220;4.412;2023-04-24T12:35:43;2.80;;;2.37;;
5937;SDS011;2994;51.220;4.412;2023-04-24T12:38:09;3.60;;;2.00;;
5937;SDS011;2994;51.220;4.412;2023-04-24T12:45:47;5.03;;;2.20;;
5937;SDS011;2994;51.220;4.412;2023-04-24T12:48:13;4.07;;;2.23;;
5937;SDS011;2994;51.220;4.412;2023-04-24T12:50:44;2.47;;;1.87;;
5937;SDS011;2994;51.220;4.412;2023-04-24T12:53:09;4.60;;;2.57;;
5937;SDS011;2994;51.220;4.412;2023-04-24T12:55:35;4.50;;;2.03;;
5937;SDS011;2994;51.220;4.412;2023-04-24T12:58:05;4.93;;;2.70;;
5937;SDS011;2994;51.220;4.412;2023-04-24T13:00:30;5.17;;;2.60;;
5937;SDS011;2994;51.220;4.412;2023-04-24T13:02:56;5.13;;;3.00;;
5937;SDS011;2994;51.220;4.412;2023-04-24T13:05:21;3.10;;;1.90;;
5937;SDS011;2994;51.220;4.412;2023-04-24T13:07:47;3.67;;;2.17;;
5937;SDS011;2994;51.220;4.412;2023-04-24T13:10:12;7.30;;;2.70;;
5937;SDS011;2994;51.220;4.412;2023-04-24T13:12:38;3.23;;;2.30;;
5937;SDS011;2994;51.220;4.412;2023-04-24T13:15:04;6.60;;;2.50;;
5937;SDS011;2994;51.220;4.412;2023-04-24T13:17:30;4.53;;;1.90;;
5937;SDS011;2994;51.220;4.412;2023-04-24T13:19:56;5.10;;;2.03;;
5937;SDS011;2994;51.220;4.412;2023-04-24T13:22:21;2.63;;;1.50;;
5937;SDS011;2994;51.220;4.412;2023-04-24T13:24:50;4.00;;;2.03;;
5937;SDS011;2994;51.220;4.412;2023-04-24T13:27:16;2.10;;;1.53;;
5937;SDS011;2994;51.220;4.412;2023-04-24T13:29:41;6.37;;;1.87;;
5937;SDS011;2994;51.220;4.412;2023-04-24T13:32:07;5.40;;;1.87;;
5937;SDS011;2994;51.220;4.412;2023-04-24T13:34:33;2.70;;;1.60;;
5937;SDS011;2994;51.220;4.412;2023-04-24T13:37:02;4.17;;;2.50;;
5937;SDS011;2994;51.220;4.412;2023-04-24T13:39:28;2.63;;;2.30;;
5937;SDS011;2994;51.220;4.412;2023-04-24T13:41:54;5.00;;;2.23;;
5937;SDS011;2994;51.220;4.412;2023-04-24T13:44:20;2.17;;;1.90;;
5937;SDS011;2994;51.220;4.412;2023-04-24T13:46:47;3.13;;;1.90;;
5937;SDS011;2994;51.220;4.412;2023-04-24T13:49:21;3.30;;;2.00;;
5937;SDS011;2994;51.220;4.412;2023-04-24T13:51:51;5.10;;;3.30;;
5937;SDS011;2994;51.220;4.412;2023-04-24T13:54:17;4.40;;;2.00;;
5937;SDS011;2994;51.220;4.412;2023-04-24T13:56:43;2.33;;;1.90;;
5937;SDS011;2994;51.220;4.412;2023-04-24T13:59:08;5.10;;;2.17;;
5937;SDS011;2994;51.220;4.412;2023-04-24T14:01:40;2.73;;;1.90;;
5937;SDS011;2994;51.220;4.412;2023-04-24T14:04:05;3.10;;;2.03;;
5937;SDS011;2994;51.220;4.412;2023-04-24T14:06:31;4.47;;;1.90;;
5937;SDS011;2994;51.220;4.412;2023-04-24T14:08:57;3.43;;;1.50;;
5937;SDS011;2994;51.220;4.412;2023-04-24T14:11:22;1.73;;;1.63;;
5937;SDS011;2994;51.220;4.412;2023-04-24T14:13:48;3.63;;;2.10;;
5937;SDS011;2994;51.220;4.412;2023-04-24T14:16:14;1.30;;;1.10;;
5937;SDS011;2994;51.220;4.412;2023-04-24T14:18:39;2.00;;;1.60;;
5937;SDS011;2994;51.220;4.412;2023-04-24T14:21:05;2.97;;;1.67;;
5937;SDS011;2994;51.220;4.412;2023-04-24T14:23:30;1.93;;;1.70;;
5937;SDS011;2994;51.220;4.412;2023-04-24T14:25:56;3.20;;;1.63;;
5937;SDS011;2994;51.220;4.412;2023-04-24T14:28:25;3.97;;;1.87;;
5937;SDS011;2994;51.220;4.412;2023-04-24T14:30:51;2.13;;;1.77;;
5937;SDS011;2994;51.220;4.412;2023-04-24T14:33:17;2.23;;;1.67;;
5937;SDS011;2994;51.220;4.412;2023-04-24T14:35:42;3.17;;;1.60;;
5937;SDS011;2994;51.220;4.412;2023-04-24T14:38:08;2.77;;;1.60;;
5937;SDS011;2994;51.220;4.412;2023-04-24T14:40:34;2.17;;;1.80;;
5937;SDS011;2994;51.220;4.412;2023-04-24T14:43:00;2.63;;;2.10;;
5937;SDS011;2994;51.220;4.412;2023-04-24T14:45:26;2.30;;;2.10;;
5937;SDS011;2994;51.220;4.412;2023-04-24T14:47:52;2.10;;;1.90;;
5937;SDS011;2994;51.220;4.412;2023-04-24T14:50:18;3.10;;;2.20;;
5937;SDS011;2994;51.220;4.412;2023-04-24T14:52:44;3.27;;;1.90;;
5937;SDS011;2994;51.220;4.412;2023-04-24T14:55:09;2.70;;;2.00;;
5937;SDS011;2994;51.220;4.412;2023-04-24T14:57:35;2.30;;;2.00;;
5937;SDS011;2994;51.220;4.412;2023-04-24T15:00:01;2.00;;;1.80;;
5937;SDS011;2994;51.220;4.412;2023-04-24T15:02:28;1.73;;;1.60;;
5937;SDS011;2994;51.220;4.412;2023-04-24T15:04:54;1.90;;;1.53;;
5937;SDS011;2994;51.220;4.412;2023-04-24T15:07:19;3.60;;;2.20;;
5937;SDS011;2994;51.220;4.412;2023-04-24T15:09:45;3.40;;;2.20;;
5937;SDS011;2994;51.220;4.412;2023-04-24T15:12:12;3.30;;;2.00;;
5937;SDS011;2994;51.220;4.412;2023-04-24T15:14:37;2.43;;;1.83;;
5937;SDS011;2994;51.220;4.412;2023-04-24T15:17:03;2.17;;;1.97;;
5937;SDS011;2994;51.220;4.412;2023-04-24T15:19:31;2.00;;;1.80;;
5937;SDS011;2994;51.220;4.412;2023-04-24T15:21:57;3.37;;;2.27;;
5937;SDS011;2994;51.220;4.412;2023-04-24T15:24:22;2.60;;;1.90;;
5937;SDS011;2994;51.220;4.412;2023-04-24T15:26:48;3.90;;;1.93;;